Time;durP1;ratioP1;P1;durP2;ratioP2;P2;SDS_P1;SDS_P2;PMS_P1;PMS_P2;Temp;Humidity;BMP_temperature;BMP_pressure;BME280_temperature;BME280_humidity;BME280_pressure;Samples;Min_cycle;Max_cycle;Signal;HPM_P1;HPM_P2
2021/01/18 00:02:30;;;;;;;10.63;4.25;;;;;;;;;;5083906;22;20044;-77
2021/01/18 00:04:58;;;;;;;10.52;4.35;;;;;;;;;;5083864;28;20027;-78
2021/01/18 00:07:25;;;;;;;7.90;4.28;;;;;;;;;;5105617;22;20416;-77
2021/01/18 00:09:54;;;;;;;10.50;4.35;;;;;;;;;;5080146;28;20020;-77
2021/01/18 00:12:22;;;;;;;10.55;3.60;;;;;;;;;;5070976;28;20079;-75
2021/01/18 00:14:50;;;;;;;9.77;3.10;;;;;;;;;;5073578;28;20027;-75
2021/01/18 00:17:18;;;;;;;9.75;4.05;;;;;;;;;;5088144;22;20045;-76
2021/01/18 00:19:46;;;;;;;10.38;4.28;;;;;;;;;;5072733;28;20399;-75
2021/01/18 00:22:14;;;;;;;6.95;3.60;;;;;;;;;;5070200;28;20036;-75
2021/01/18 00:24:42;;;;;;;11.18;3.30;;;;;;;;;;5056277;28;20503;-75
2021/01/18 00:27:10;;;;;;;7.22;2.63;;;;;;;;;;5070276;28;20473;-75
2021/01/18 00:29:38;;;;;;;7.28;3.53;;;;;;;;;;5066654;28;20021;-75
2021/01/18 00:32:09;;;;;;;6.85;3.05;;;;;;;;;;5071885;28;20031;-75
2021/01/18 00:34:38;;;;;;;11.07;3.00;;;;;;;;;;5075444;22;20143;-75
2021/01/18 00:37:05;;;;;;;8.27;2.72;;;;;;;;;;5052537;28;20028;-75
2021/01/18 00:39:34;;;;;;;11.02;3.17;;;;;;;;;;5049276;28;20025;-75
2021/01/18 00:42:02;;;;;;;8.98;3.30;;;;;;;;;;5047982;28;20714;-75
2021/01/18 00:44:31;;;;;;;12.38;3.10;;;;;;;;;;5071166;28;20411;-75
2021/01/18 00:46:58;;;;;;;10.20;2.88;;;;;;;;;;5069870;28;20044;-75
2021/01/18 00:49:26;;;;;;;7.60;3.10;;;;;;;;;;5070474;28;20017;-75
2021/01/18 00:51:54;;;;;;;9.60;3.33;;;;;;;;;;5069060;28;20036;-75
2021/01/18 00:54:22;;;;;;;8.05;2.95;;;;;;;;;;5070674;28;20024;-75
2021/01/18 00:56:52;;;;;;;10.95;2.40;;;;;;;;;;5070549;28;20025;-75
2021/01/18 00:59:20;;;;;;;11.70;2.45;;;;;;;;;;5068617;28;20380;-75
2021/01/18 01:01:48;;;;;;;9.63;2.25;;;;;;;;;;5072805;28;20049;-74
2021/01/18 01:04:15;;;;;;;12.93;3.10;;;;;;;;;;5070680;28;20028;-75
2021/01/18 01:06:43;;;;;;;15.00;2.78;;;;;;;;;;5087553;22;20080;-74
2021/01/18 01:09:11;;;;;;;13.23;2.47;;;;;;;;;;5069066;28;20052;-75
2021/01/18 01:11:48;;;;;;;10.35;2.28;;;;;;;;;;5047500;28;20022;-75
2021/01/18 01:14:15;;;;;;;9.77;2.35;;;;;;;;;;5034794;28;20112;-75
2021/01/18 01:16:44;;;;;;;14.48;3.10;;;;;;;;;;5053235;28;20017;-75
2021/01/18 01:19:12;;;;;;;14.82;2.63;;;;;;;;;;5044293;28;20484;-74
2021/01/18 01:21:41;;;;;;;16.27;2.60;;;;;;;;;;5052052;28;20091;-75
2021/01/18 01:24:08;;;;;;;9.10;2.40;;;;;;;;;;5039646;28;20551;-75
2021/01/18 01:26:36;;;;;;;13.23;2.72;;;;;;;;;;5047137;28;20033;-75
2021/01/18 01:29:07;;;;;;;12.82;2.97;;;;;;;;;;5040706;28;20035;-75
2021/01/18 01:31:35;;;;;;;12.48;2.85;;;;;;;;;;5040359;28;20128;-75
2021/01/18 01:34:03;;;;;;;12.50;2.85;;;;;;;;;;5026859;28;20017;-77
2021/01/18 01:36:31;;;;;;;14.05;2.95;;;;;;;;;;5053407;28;20056;-76
2021/01/18 01:39:02;;;;;;;11.43;2.28;;;;;;;;;;5038875;28;20399;-76
2021/01/18 01:41:40;;;;;;;10.43;2.53;;;;;;;;;;5034013;28;20067;-76
2021/01/18 01:44:10;;;;;;;12.30;2.20;;;;;;;;;;5031077;28;20638;-77
2021/01/18 01:46:38;;;;;;;11.57;2.50;;;;;;;;;;5048747;28;20017;-77
2021/01/18 01:49:09;;;;;;;14.55;3.15;;;;;;;;;;5031990;28;20031;-75
2021/01/18 01:51:42;;;;;;;9.52;2.40;;;;;;;;;;5054566;28;20037;-76
2021/01/18 01:54:10;;;;;;;12.63;2.40;;;;;;;;;;5033988;28;20026;-77
2021/01/18 01:56:38;;;;;;;12.13;2.53;;;;;;;;;;5033721;28;20068;-77
2021/01/18 01:59:07;;;;;;;18.67;3.17;;;;;;;;;;5043162;28;20488;-77
2021/01/18 02:01:36;;;;;;;11.05;2.10;;;;;;;;;;5050555;28;20036;-76
2021/01/18 02:04:06;;;;;;;13.75;2.60;;;;;;;;;;5041582;28;20025;-76
2021/01/18 02:06:34;;;;;;;10.35;2.42;;;;;;;;;;5044937;28;20394;-76
2021/01/18 02:09:02;;;;;;;8.80;2.22;;;;;;;;;;5074637;22;20405;-75
2021/01/18 02:11:29;;;;;;;9.98;2.35;;;;;;;;;;5091209;22;20496;-78
2021/01/18 02:14:08;;;;;;;8.07;2.33;;;;;;;;;;5066977;28;20039;-77
2021/01/18 02:16:47;;;;;;;10.75;2.10;;;;;;;;;;5087660;22;20139;-77
2021/01/18 02:19:45;;;;;;;13.85;2.42;;;;;;;;;;5050965;28;20127;-77
2021/01/18 02:22:16;;;;;;;12.07;3.83;;;;;;;;;;5066703;28;20039;-77
2021/01/18 02:25:01;;;;;;;9.27;1.73;;;;;;;;;;5082094;22;20062;-77
2021/01/18 02:27:31;;;;;;;10.02;2.03;;;;;;;;;;5089287;28;20050;-77
2021/01/18 02:30:17;;;;;;;10.65;2.05;;;;;;;;;;5091749;28;20111;-77
2021/01/18 02:33:03;;;;;;;11.43;2.05;;;;;;;;;;5090304;28;20085;-77
2021/01/18 02:35:48;;;;;;;11.38;1.95;;;;;;;;;;5091959;28;20047;-77
2021/01/18 02:38:15;;;;;;;9.60;2.33;;;;;;;;;;5088096;28;20480;-77
2021/01/18 02:40:42;;;;;;;9.85;2.40;;;;;;;;;;5087254;28;20296;-77
2021/01/18 02:43:10;;;;;;;11.18;2.45;;;;;;;;;;5096698;22;20055;-77
2021/01/18 02:45:38;;;;;;;10.32;2.03;;;;;;;;;;5091159;28;20019;-76
2021/01/18 02:48:06;;;;;;;9.95;2.05;;;;;;;;;;5089095;28;20088;-77
2021/01/18 02:50:33;;;;;;;9.13;2.35;;;;;;;;;;5091713;28;20024;-77
2021/01/18 02:53:01;;;;;;;10.43;2.35;;;;;;;;;;5087565;28;20027;-77
2021/01/18 02:55:29;;;;;;;10.77;2.25;;;;;;;;;;5089209;28;20032;-77
2021/01/18 02:57:59;;;;;;;13.05;2.22;;;;;;;;;;5081253;28;20021;-74
2021/01/18 03:00:29;;;;;;;9.82;2.78;;;;;;;;;;5085067;28;20054;-74
2021/01/18 03:03:14;;;;;;;12.73;2.80;;;;;;;;;;5083561;28;20394;-73
2021/01/18 03:05:47;;;;;;;17.40;2.50;;;;;;;;;;5086275;28;20034;-74
2021/01/18 03:08:17;;;;;;;8.68;2.83;;;;;;;;;;5088575;28;20024;-75
2021/01/18 03:10:56;;;;;;;14.90;2.78;;;;;;;;;;5093782;28;20024;-75
2021/01/18 03:13:23;;;;;;;11.25;2.60;;;;;;;;;;5110376;22;20441;-75
2021/01/18 03:15:54;;;;;;;14.77;3.33;;;;;;;;;;5074300;28;20043;-75
2021/01/18 03:18:23;;;;;;;14.13;3.60;;;;;;;;;;5072360;28;20527;-74
2021/01/18 03:20:50;;;;;;;10.95;2.00;;;;;;;;;;5054944;28;20086;-75
2021/01/18 03:23:18;;;;;;;11.65;2.53;;;;;;;;;;5053329;28;20108;-77
2021/01/18 03:25:48;;;;;;;10.82;2.80;;;;;;;;;;5054660;28;20033;-75
2021/01/18 03:28:16;;;;;;;11.77;3.05;;;;;;;;;;5052894;28;21011;-75
2021/01/18 03:30:43;;;;;;;7.35;2.10;;;;;;;;;;5054639;28;20022;-75
2021/01/18 03:33:10;;;;;;;10.15;2.28;;;;;;;;;;5049948;28;20619;-75
2021/01/18 03:35:37;;;;;;;15.40;2.28;;;;;;;;;;5054452;28;20452;-74
2021/01/18 03:38:05;;;;;;;8.55;1.88;;;;;;;;;;5049666;28;20496;-76
2021/01/18 03:40:32;;;;;;;10.52;1.85;;;;;;;;;;5053954;28;20029;-76
2021/01/18 03:43:00;;;;;;;8.10;2.65;;;;;;;;;;5051183;28;20033;-76
2021/01/18 03:45:29;;;;;;;8.35;2.40;;;;;;;;;;5054194;28;20029;-76
2021/01/18 03:47:56;;;;;;;10.18;3.03;;;;;;;;;;5052355;28;20025;-75
2021/01/18 03:50:23;;;;;;;7.55;2.78;;;;;;;;;;5052654;28;20583;-75
2021/01/18 03:52:52;;;;;;;8.65;1.80;;;;;;;;;;5052651;28;20032;-76
2021/01/18 03:55:20;;;;;;;7.60;2.22;;;;;;;;;;5052856;28;20025;-75
2021/01/18 03:57:51;;;;;;;7.60;2.88;;;;;;;;;;5038153;28;20054;-75
2021/01/18 04:00:19;;;;;;;8.02;2.85;;;;;;;;;;5053662;28;20052;-75
2021/01/18 04:02:46;;;;;;;8.15;2.30;;;;;;;;;;5050291;28;20024;-75
2021/01/18 04:05:16;;;;;;;6.97;1.80;;;;;;;;;;5053824;28;20029;-74
2021/01/18 04:07:44;;;;;;;10.68;2.03;;;;;;;;;;5051991;28;20071;-75
2021/01/18 04:10:11;;;;;;;10.32;2.63;;;;;;;;;;5053404;28;20079;-75
2021/01/18 04:12:40;;;;;;;10.70;2.42;;;;;;;;;;5052243;28;20033;-75
2021/01/18 04:15:07;;;;;;;5.88;1.77;;;;;;;;;;5085901;22;20084;-74
2021/01/18 04:17:34;;;;;;;9.05;2.10;;;;;;;;;;5087208;22;20056;-74
2021/01/18 04:20:02;;;;;;;7.72;2.33;;;;;;;;;;5087147;28;20384;-74
2021/01/18 04:22:29;;;;;;;7.97;2.63;;;;;;;;;;5093090;22;20539;-74
2021/01/18 04:24:56;;;;;;;12.23;2.13;;;;;;;;;;5073682;28;20387;-74
2021/01/18 04:27:23;;;;;;;15.30;3.00;;;;;;;;;;5067372;28;20033;-73
2021/01/18 04:29:50;;;;;;;11.70;2.38;;;;;;;;;;5052404;28;20056;-73
2021/01/18 04:32:17;;;;;;;10.02;2.22;;;;;;;;;;5098729;22;20082;-73
2021/01/18 04:34:44;;;;;;;6.40;2.05;;;;;;;;;;5088816;28;20062;-73
2021/01/18 04:37:11;;;;;;;9.98;2.00;;;;;;;;;;5088347;28;20020;-76
2021/01/18 04:39:38;;;;;;;8.05;2.25;;;;;;;;;;5087445;28;21234;-75
2021/01/18 04:42:06;;;;;;;9.43;1.90;;;;;;;;;;5088476;28;20037;-74
2021/01/18 04:44:33;;;;;;;10.93;2.22;;;;;;;;;;5084854;28;20039;-74
2021/01/18 04:47:00;;;;;;;7.55;2.28;;;;;;;;;;5077101;22;20101;-75
2021/01/18 04:49:27;;;;;;;10.02;2.45;;;;;;;;;;5089101;28;20047;-78
2021/01/18 04:51:55;;;;;;;13.73;2.60;;;;;;;;;;5072014;28;20017;-75
2021/01/18 04:54:23;;;;;;;10.38;2.40;;;;;;;;;;5076549;28;20033;-77
2021/01/18 04:57:09;;;;;;;7.32;2.28;;;;;;;;;;5068003;28;20087;-77
2021/01/18 04:59:42;;;;;;;10.10;2.22;;;;;;;;;;5063697;28;20101;-77
2021/01/18 05:02:13;;;;;;;10.23;2.43;;;;;;;;;;5067815;28;20118;-77
2021/01/18 05:04:41;;;;;;;10.02;3.05;;;;;;;;;;5072891;28;20025;-78
2021/01/18 05:07:26;;;;;;;10.77;2.33;;;;;;;;;;5070318;28;20017;-77
2021/01/18 05:09:56;;;;;;;12.07;3.22;;;;;;;;;;5068325;28;20064;-78
2021/01/18 05:12:24;;;;;;;9.38;2.85;;;;;;;;;;5061940;28;20031;-77
2021/01/18 05:14:51;;;;;;;10.02;2.10;;;;;;;;;;5066199;28;20075;-77
2021/01/18 05:17:37;;;;;;;7.07;2.63;;;;;;;;;;5071235;28;20078;-81
2021/01/18 05:20:05;;;;;;;8.20;2.10;;;;;;;;;;5074091;28;20025;-78
2021/01/18 05:22:33;;;;;;;8.15;1.88;;;;;;;;;;5096663;22;20057;-78
2021/01/18 05:25:01;;;;;;;14.85;3.17;;;;;;;;;;5072020;28;20017;-79
2021/01/18 05:27:28;;;;;;;7.45;2.30;;;;;;;;;;5053520;28;20091;-80
2021/01/18 05:29:56;;;;;;;11.32;2.83;;;;;;;;;;5050721;28;20020;-79
2021/01/18 05:32:25;;;;;;;5.07;2.05;;;;;;;;;;5066408;28;20380;-79
2021/01/18 05:35:12;;;;;;;5.70;1.98;;;;;;;;;;5071879;28;20028;-79
2021/01/18 05:37:58;;;;;;;8.77;2.25;;;;;;;;;;5068679;28;20122;-78
2021/01/18 05:40:25;;;;;;;8.80;2.33;;;;;;;;;;5047033;28;20025;-83
2021/01/18 05:42:52;;;;;;;10.00;2.75;;;;;;;;;;5062645;28;20078;-89
2021/01/18 05:45:32;;;;;;;10.93;2.08;;;;;;;;;;5073284;28;20021;-85
2021/01/18 05:48:00;;;;;;;8.20;2.22;;;;;;;;;;5067937;28;20024;-84
2021/01/18 05:50:28;;;;;;;11.05;2.00;;;;;;;;;;5070944;28;20027;-84
2021/01/18 05:52:55;;;;;;;6.57;2.28;;;;;;;;;;5067372;28;20509;-78
2021/01/18 05:55:32;;;;;;;10.75;2.35;;;;;;;;;;5052669;28;20078;-83
2021/01/18 05:57:59;;;;;;;10.75;2.67;;;;;;;;;;5067411;28;20038;-78
2021/01/18 06:00:30;;;;;;;6.80;1.95;;;;;;;;;;5048572;28;20103;-79
2021/01/18 06:03:01;;;;;;;5.60;1.85;;;;;;;;;;5068515;28;20045;-78
2021/01/18 06:05:30;;;;;;;12.05;2.67;;;;;;;;;;5070771;28;20074;-75
2021/01/18 06:08:14;;;;;;;11.57;1.90;;;;;;;;;;5067252;28;20036;-76
2021/01/18 06:10:41;;;;;;;7.47;1.90;;;;;;;;;;5070189;28;20028;-72
2021/01/18 06:13:34;;;;;;;8.98;2.50;;;;;;;;;;5067423;28;20031;-71
2021/01/18 06:16:14;;;;;;;34.17;5.57;;;;;;;;;;5061598;28;20028;-72
2021/01/18 06:18:41;;;;;;;9.20;2.40;;;;;;;;;;5066923;28;20024;-72
2021/01/18 06:21:12;;;;;;;15.98;3.22;;;;;;;;;;5069372;28;20053;-73
2021/01/18 06:23:40;;;;;;;10.68;2.65;;;;;;;;;;5067442;28;20060;-73
2021/01/18 06:26:08;;;;;;;8.23;2.10;;;;;;;;;;5068061;28;20036;-72
2021/01/18 06:28:35;;;;;;;10.00;1.88;;;;;;;;;;5066839;28;20017;-74
2021/01/18 06:31:03;;;;;;;11.40;2.42;;;;;;;;;;5075834;22;20114;-74
2021/01/18 06:33:44;;;;;;;6.50;2.20;;;;;;;;;;5021424;22;1978469;-75
2021/01/18 06:36:13;;;;;;;8.15;2.47;;;;;;;;;;5084055;22;20049;-80
2021/01/18 06:38:40;;;;;;;11.15;2.42;;;;;;;;;;5086350;22;20036;-80
2021/01/18 06:41:08;;;;;;;7.70;2.20;;;;;;;;;;5069600;28;20047;-83
2021/01/18 06:43:36;;;;;;;8.45;2.55;;;;;;;;;;5068473;28;20128;-81
2021/01/18 06:46:24;;;;;;;7.90;2.15;;;;;;;;;;5068602;28;20070;-84
2021/01/18 06:48:52;;;;;;;5.18;2.45;;;;;;;;;;5089331;22;20496;-82
2021/01/18 06:51:20;;;;;;;11.10;2.88;;;;;;;;;;5040433;28;20064;-85
2021/01/18 06:53:48;;;;;;;9.75;2.17;;;;;;;;;;5045846;28;20032;-85
2021/01/18 06:56:25;;;;;;;9.98;3.03;;;;;;;;;;5043310;28;20051;-80
2021/01/18 06:58:52;;;;;;;8.38;2.17;;;;;;;;;;5050690;28;20096;-81
2021/01/18 07:01:34;;;;;;;9.15;2.65;;;;;;;;;;5052842;28;20029;-81
2021/01/18 07:06:32;;;;;;;7.93;2.10;;;;;;;;;;5081188;22;20519;-83
2021/01/18 07:09:00;;;;;;;5.47;2.25;;;;;;;;;;5076336;28;20111;-82
2021/01/18 07:11:27;;;;;;;11.30;3.22;;;;;;;;;;5070950;28;20099;-76
2021/01/18 07:13:54;;;;;;;14.65;5.55;;;;;;;;;;5067184;28;20500;-78
2021/01/18 07:16:22;;;;;;;10.93;4.88;;;;;;;;;;5055157;28;20033;-77
2021/01/18 07:18:53;;;;;;;16.85;5.63;;;;;;;;;;5072642;28;20035;-77
2021/01/18 07:21:21;;;;;;;10.77;4.10;;;;;;;;;;5075455;28;20056;-76
2021/01/18 07:23:58;;;;;;;8.35;3.38;;;;;;;;;;5069893;28;20040;-79
2021/01/18 07:27:07;;;;;;;10.02;3.67;;;;;;;;;;5055723;28;20094;-79
2021/01/18 07:29:37;;;;;;;10.35;3.90;;;;;;;;;;5071838;28;20093;-79
2021/01/18 07:32:09;;;;;;;7.32;3.55;;;;;;;;;;5073773;28;20044;-80
2021/01/18 07:34:37;;;;;;;9.20;3.05;;;;;;;;;;5073077;28;20112;-80
2021/01/18 07:37:08;;;;;;;8.57;3.30;;;;;;;;;;5074533;28;20036;-80
2021/01/18 07:39:35;;;;;;;8.98;3.40;;;;;;;;;;5044459;23;20050;-80
2021/01/18 07:42:03;;;;;;;12.25;3.47;;;;;;;;;;5030061;28;20099;-79
2021/01/18 07:44:46;;;;;;;9.20;3.08;;;;;;;;;;5032631;28;20056;-79
2021/01/18 07:47:14;;;;;;;9.10;3.03;;;;;;;;;;5032737;28;20071;-79
2021/01/18 07:49:42;;;;;;;8.18;3.60;;;;;;;;;;5034034;28;20025;-79
2021/01/18 07:52:17;;;;;;;12.30;3.97;;;;;;;;;;5033540;28;20428;-80
2021/01/18 07:54:44;;;;;;;7.68;3.40;;;;;;;;;;5033810;28;20025;-79
2021/01/18 07:57:27;;;;;;;11.10;4.18;;;;;;;;;;5023153;28;20556;-80
2021/01/18 08:00:12;;;;;;;10.07;3.77;;;;;;;;;;5032321;28;20033;-81
2021/01/18 08:02:39;;;;;;;11.25;3.88;;;;;;;;;;5029613;28;20440;-79
2021/01/18 08:05:23;;;;;;;10.63;3.50;;;;;;;;;;5031527;28;20026;-80
2021/01/18 08:08:10;;;;;;;7.18;3.42;;;;;;;;;;5030761;28;20048;-79
2021/01/18 08:10:55;;;;;;;8.80;4.22;;;;;;;;;;5028505;28;20026;-80
2021/01/18 08:13:42;;;;;;;7.68;4.03;;;;;;;;;;5029896;28;20086;-82
2021/01/18 08:16:09;;;;;;;13.35;5.57;;;;;;;;;;5026206;28;20501;-83
2021/01/18 08:18:36;;;;;;;9.07;4.40;;;;;;;;;;5031273;28;20037;-82
2021/01/18 08:21:23;;;;;;;8.95;4.45;;;;;;;;;;5032474;28;20033;-81
2021/01/18 08:23:50;;;;;;;10.27;4.78;;;;;;;;;;5031573;28;20040;-80
2021/01/18 08:26:17;;;;;;;9.05;4.50;;;;;;;;;;5028041;28;20021;-81
2021/01/18 08:28:50;;;;;;;9.18;4.85;;;;;;;;;;5025668;28;20402;-79
2021/01/18 08:31:17;;;;;;;8.47;4.10;;;;;;;;;;5024332;28;20056;-83
2021/01/18 08:33:45;;;;;;;9.20;3.60;;;;;;;;;;5028287;28;20542;-82
2021/01/18 08:36:12;;;;;;;8.63;4.13;;;;;;;;;;5033358;28;20080;-82
2021/01/18 08:38:39;;;;;;;10.57;4.35;;;;;;;;;;5057255;22;20099;-82
2021/01/18 08:41:10;;;;;;;9.75;3.42;;;;;;;;;;5105402;22;20062;-81
2021/01/18 08:43:51;;;;;;;10.40;3.53;;;;;;;;;;5100739;22;20522;-82
2021/01/18 08:46:34;;;;;;;12.95;3.80;;;;;;;;;;5106586;22;20119;-82
2021/01/18 08:49:19;;;;;;;5.85;3.20;;;;;;;;;;5082238;28;20059;-82
2021/01/18 08:51:50;;;;;;;5.72;2.85;;;;;;;;;;5071187;28;20025;-82
2021/01/18 08:54:29;;;;;;;8.52;2.83;;;;;;;;;;5067959;28;20028;-82
2021/01/18 08:57:28;;;;;;;9.18;3.33;;;;;;;;;;5072374;22;20146;-82
2021/01/18 09:00:09;;;;;;;11.10;2.45;;;;;;;;;;5000214;28;20119;-81
2021/01/18 09:02:36;;;;;;;10.77;3.25;;;;;;;;;;5031895;28;20112;-82
2021/01/18 09:05:13;;;;;;;6.25;2.60;;;;;;;;;;5031892;28;20021;-82
2021/01/18 09:07:44;;;;;;;9.82;3.30;;;;;;;;;;5027859;28;20409;-82
2021/01/18 09:10:18;;;;;;;7.50;2.70;;;;;;;;;;5032574;28;20030;-82
2021/01/18 09:12:46;;;;;;;6.03;2.38;;;;;;;;;;5040857;23;20048;-81
2021/01/18 09:15:14;;;;;;;9.77;3.00;;;;;;;;;;5072519;28;20024;-82
2021/01/18 09:17:41;;;;;;;9.80;2.60;;;;;;;;;;5070831;28;20162;-82
2021/01/18 09:20:12;;;;;;;8.75;2.78;;;;;;;;;;5070262;28;20020;-81
2021/01/18 09:22:43;;;;;;;9.23;2.42;;;;;;;;;;5071640;28;20067;-82
2021/01/18 09:25:11;;;;;;;6.55;2.30;;;;;;;;;;5071482;28;20031;-82
2021/01/18 09:27:39;;;;;;;6.43;2.30;;;;;;;;;;5036779;28;20037;-81
2021/01/18 09:30:11;;;;;;;7.70;2.38;;;;;;;;;;5060393;28;20496;-82
2021/01/18 09:32:38;;;;;;;8.43;2.53;;;;;;;;;;5070782;28;20028;-81
2021/01/18 09:35:15;;;;;;;5.93;2.40;;;;;;;;;;5072421;28;20393;-82
2021/01/18 09:37:46;;;;;;;7.75;3.03;;;;;;;;;;5054010;28;20111;-82
2021/01/18 09:40:14;;;;;;;11.88;3.60;;;;;;;;;;5071081;28;20020;-82
2021/01/18 09:42:41;;;;;;;9.27;2.97;;;;;;;;;;5071089;28;20037;-82
2021/01/18 09:45:11;;;;;;;9.65;3.72;;;;;;;;;;5083746;22;20147;-81
2021/01/18 09:47:38;;;;;;;11.13;3.72;;;;;;;;;;5052067;28;20110;-81
2021/01/18 09:50:19;;;;;;;11.98;4.13;;;;;;;;;;5045896;28;20532;-82
2021/01/18 09:52:48;;;;;;;13.85;4.28;;;;;;;;;;5052458;28;20023;-81
2021/01/18 09:55:23;;;;;;;9.35;3.92;;;;;;;;;;5051807;28;20384;-80
2021/01/18 09:57:59;;;;;;;12.20;4.00;;;;;;;;;;5046577;28;20116;-81
2021/01/18 10:00:28;;;;;;;10.05;4.30;;;;;;;;;;5037605;28;20021;-81
2021/01/18 10:02:55;;;;;;;9.40;4.07;;;;;;;;;;5051862;28;20139;-80
2021/01/18 10:05:28;;;;;;;10.48;4.28;;;;;;;;;;5051557;28;20017;-80
2021/01/18 10:07:56;;;;;;;10.60;4.72;;;;;;;;;;5051411;28;20029;-81
2021/01/18 10:10:24;;;;;;;11.05;3.78;;;;;;;;;;5051605;28;20032;-81
2021/01/18 10:12:52;;;;;;;13.40;4.72;;;;;;;;;;5051538;28;20120;-81
2021/01/18 10:15:24;;;;;;;10.63;4.07;;;;;;;;;;5031831;28;20029;-81
2021/01/18 10:17:51;;;;;;;15.13;4.22;;;;;;;;;;5042657;28;20029;-80
2021/01/18 10:20:22;;;;;;;11.73;3.72;;;;;;;;;;5048764;28;20035;-81
2021/01/18 10:22:50;;;;;;;14.00;4.70;;;;;;;;;;5024131;28;20083;-81
2021/01/18 10:25:18;;;;;;;13.95;4.65;;;;;;;;;;5051310;28;20473;-81
2021/01/18 10:27:52;;;;;;;17.08;4.07;;;;;;;;;;5051388;28;20443;-82
2021/01/18 10:30:20;;;;;;;;;;;;;;;;;;5051804;28;20481;-81
2021/01/18 10:32:48;;;;;;;12.70;3.50;;;;;;;;;;5049950;28;19955;-81
2021/01/18 10:35:20;;;;;;;9.88;3.20;;;;;;;;;;5038636;28;20056;-82
2021/01/18 10:37:47;;;;;;;12.25;4.05;;;;;;;;;;5051434;28;20017;-82
2021/01/18 10:40:14;;;;;;;10.23;3.80;;;;;;;;;;5051062;28;20046;-81
2021/01/18 10:42:48;;;;;;;12.00;3.65;;;;;;;;;;5051094;28;20068;-82
2021/01/18 10:45:19;;;;;;;13.35;4.13;;;;;;;;;;5044409;28;20159;-82
2021/01/18 10:47:54;;;;;;;9.85;4.00;;;;;;;;;;5075775;22;20513;-81
2021/01/18 10:50:24;;;;;;;7.90;3.58;;;;;;;;;;5081375;22;20081;-86
2021/01/18 10:53:00;;;;;;;10.95;4.10;;;;;;;;;;5086610;28;20432;-82
2021/01/18 10:55:27;;;;;;;10.50;3.65;;;;;;;;;;5072908;22;20060;-82
2021/01/18 10:57:54;;;;;;;12.05;3.88;;;;;;;;;;5049044;28;20048;-82
2021/01/18 11:00:23;;;;;;;8.85;3.35;;;;;;;;;;5045390;28;20048;-83
2021/01/18 11:02:57;;;;;;;10.48;3.63;;;;;;;;;;5060354;22;20059;-82
2021/01/18 11:05:31;;;;;;;11.25;3.78;;;;;;;;;;5068855;28;20441;-82
2021/01/18 11:08:02;;;;;;;11.52;4.38;;;;;;;;;;5052565;28;20028;-82
2021/01/18 11:10:30;;;;;;;10.38;3.55;;;;;;;;;;5054601;28;20571;-82
2021/01/18 11:13:02;;;;;;;8.32;3.58;;;;;;;;;;5049490;28;20025;-82
2021/01/18 11:15:30;;;;;;;11.25;3.80;;;;;;;;;;5028714;28;20095;-82
2021/01/18 11:17:57;;;;;;;8.45;3.63;;;;;;;;;;5049783;28;20354;-82
2021/01/18 11:20:26;;;;;;;9.63;3.70;;;;;;;;;;5074549;22;20045;-82
2021/01/18 11:22:53;;;;;;;13.57;3.80;;;;;;;;;;5048352;28;20041;-82
2021/01/18 11:25:21;;;;;;;7.07;3.47;;;;;;;;;;5058704;28;20048;-82
2021/01/18 11:27:48;;;;;;;12.05;3.65;;;;;;;;;;5050724;28;20037;-83
2021/01/18 11:30:16;;;;;;;6.95;3.50;;;;;;;;;;5051867;28;20017;-82
2021/01/18 11:32:43;;;;;;;9.45;3.33;;;;;;;;;;5054060;28;20016;-82
2021/01/18 11:35:12;;;;;;;9.30;4.22;;;;;;;;;;5054050;28;20033;-82
2021/01/18 11:37:39;;;;;;;14.25;4.85;;;;;;;;;;5054202;28;20013;-82
2021/01/18 11:40:07;;;;;;;9.55;3.75;;;;;;;;;;5055432;28;20094;-82
2021/01/18 11:42:35;;;;;;;10.90;3.45;;;;;;;;;;5066448;28;20044;-82
2021/01/18 11:45:04;;;;;;;9.43;3.83;;;;;;;;;;5054113;28;20021;-82
2021/01/18 11:47:49;;;;;;;7.93;3.38;;;;;;;;;;5054209;28;20024;-82
2021/01/18 11:50:16;;;;;;;7.75;2.92;;;;;;;;;;5067271;28;20055;-82
2021/01/18 11:52:47;;;;;;;8.15;3.30;;;;;;;;;;5075145;22;20045;-82
2021/01/18 11:55:15;;;;;;;7.13;3.33;;;;;;;;;;5053955;28;20029;-82
2021/01/18 11:57:43;;;;;;;9.52;3.33;;;;;;;;;;5053058;28;20516;-82
2021/01/18 12:00:11;;;;;;;5.55;2.85;;;;;;;;;;5041856;28;20018;-82
2021/01/18 12:02:38;;;;;;;10.50;3.58;;;;;;;;;;5033580;28;20121;-82
2021/01/18 12:05:05;;;;;;;9.70;3.42;;;;;;;;;;5036367;28;20021;-82
2021/01/18 12:07:33;;;;;;;11.50;3.47;;;;;;;;;;5033791;28;20026;-82
2021/01/18 12:10:00;;;;;;;12.93;3.58;;;;;;;;;;5024172;28;20048;-82
2021/01/18 12:12:27;;;;;;;7.80;3.28;;;;;;;;;;5042737;28;20029;-82
2021/01/18 12:14:54;;;;;;;8.35;3.67;;;;;;;;;;5035104;28;20048;-82
2021/01/18 12:17:21;;;;;;;9.55;3.47;;;;;;;;;;5040401;28;20677;-82
2021/01/18 12:19:49;;;;;;;7.68;2.85;;;;;;;;;;5034196;28;20025;-82
2021/01/18 12:22:19;;;;;;;7.15;3.03;;;;;;;;;;5053403;28;20087;-81
2021/01/18 12:24:47;;;;;;;7.78;3.08;;;;;;;;;;5035937;28;20021;-81
2021/01/18 12:27:14;;;;;;;7.07;3.05;;;;;;;;;;5034785;28;20128;-81
2021/01/18 12:29:41;;;;;;;9.30;3.17;;;;;;;;;;5042583;28;20067;-82
2021/01/18 12:32:08;;;;;;;10.18;3.83;;;;;;;;;;5034146;28;20664;-82
2021/01/18 12:34:35;;;;;;;8.60;3.30;;;;;;;;;;5031714;28;20044;-82
2021/01/18 12:37:02;;;;;;;8.18;3.00;;;;;;;;;;5050261;28;20496;-82
2021/01/18 12:39:29;;;;;;;7.35;2.95;;;;;;;;;;5052842;28;20035;-82
2021/01/18 12:41:56;;;;;;;8.75;3.03;;;;;;;;;;5034916;28;20042;-82
2021/01/18 12:44:23;;;;;;;7.35;3.80;;;;;;;;;;5032170;28;20053;-82
2021/01/18 12:46:51;;;;;;;7.30;3.10;;;;;;;;;;5050747;28;20039;-81
2021/01/18 12:49:18;;;;;;;11.70;3.15;;;;;;;;;;5034069;28;20131;-82
2021/01/18 12:51:50;;;;;;;8.63;3.45;;;;;;;;;;5032974;28;20124;-82
2021/01/18 12:54:17;;;;;;;8.18;3.00;;;;;;;;;;5075704;22;20327;-81
2021/01/18 12:56:44;;;;;;;6.50;3.28;;;;;;;;;;5088539;22;20658;-81
2021/01/18 12:59:12;;;;;;;8.98;3.35;;;;;;;;;;5065174;28;20048;-81
2021/01/18 13:01:40;;;;;;;11.60;4.18;;;;;;;;;;5085096;22;20420;-81
2021/01/18 13:04:07;;;;;;;9.32;3.92;;;;;;;;;;5069889;28;20024;-82
2021/01/18 13:06:37;;;;;;;8.95;3.47;;;;;;;;;;5071645;28;20021;-82
2021/01/18 13:09:08;;;;;;;11.85;3.60;;;;;;;;;;5069268;28;20056;-82
2021/01/18 13:11:35;;;;;;;9.15;4.18;;;;;;;;;;5076707;22;20044;-82
2021/01/18 13:14:03;;;;;;;18.30;4.40;;;;;;;;;;5071713;28;20040;-82
2021/01/18 13:16:30;;;;;;;8.57;3.20;;;;;;;;;;5071818;28;20028;-82
2021/01/18 13:18:57;;;;;;;9.27;4.35;;;;;;;;;;5071443;28;20400;-82
2021/01/18 13:21:24;;;;;;;11.35;4.07;;;;;;;;;;5058161;28;20043;-81
2021/01/18 13:23:51;;;;;;;13.50;3.88;;;;;;;;;;5052115;28;20021;-81
2021/01/18 13:26:22;;;;;;;9.77;4.25;;;;;;;;;;5069166;22;20037;-81
2021/01/18 13:28:50;;;;;;;11.23;4.85;;;;;;;;;;5066116;28;20021;-82
2021/01/18 13:31:18;;;;;;;13.75;4.93;;;;;;;;;;5051860;28;20020;-82
2021/01/18 13:33:46;;;;;;;11.27;4.18;;;;;;;;;;5050901;28;20029;-82
2021/01/18 13:36:25;;;;;;;12.27;4.03;;;;;;;;;;5052055;28;20429;-82
2021/01/18 13:38:53;;;;;;;11.90;4.50;;;;;;;;;;5051423;28;20543;-82
2021/01/18 13:41:21;;;;;;;13.20;4.88;;;;;;;;;;5051570;28;20036;-81
2021/01/18 13:43:48;;;;;;;15.88;4.72;;;;;;;;;;5051791;28;20401;-82
2021/01/18 13:46:16;;;;;;;10.23;4.18;;;;;;;;;;5051853;28;20094;-81
2021/01/18 13:48:44;;;;;;;12.32;4.35;;;;;;;;;;5033170;28;20029;-81
2021/01/18 13:51:14;;;;;;;12.55;4.75;;;;;;;;;;5050707;28;20040;-82
2021/01/18 13:53:42;;;;;;;13.63;5.15;;;;;;;;;;5051437;28;20061;-82
2021/01/18 13:56:09;;;;;;;13.23;4.47;;;;;;;;;;5050435;28;20196;-81
2021/01/18 13:58:36;;;;;;;11.55;4.03;;;;;;;;;;5049671;28;20036;-82
2021/01/18 14:01:03;;;;;;;13.88;4.95;;;;;;;;;;5080194;22;20049;-81
2021/01/18 14:03:30;;;;;;;13.85;5.97;;;;;;;;;;5050299;28;20126;-81
2021/01/18 14:05:57;;;;;;;12.52;4.93;;;;;;;;;;5061367;28;20029;-82
2021/01/18 14:08:25;;;;;;;10.20;4.60;;;;;;;;;;5044436;28;20111;-81
2021/01/18 14:10:52;;;;;;;16.25;5.32;;;;;;;;;;5051778;28;20025;-81
2021/01/18 14:13:23;;;;;;;19.17;6.30;;;;;;;;;;5064234;28;20488;-82
2021/01/18 14:15:53;;;;;;;18.00;6.35;;;;;;;;;;5069626;28;20020;-82
2021/01/18 14:18:20;;;;;;;22.67;6.90;;;;;;;;;;5052487;28;20025;-82
2021/01/18 14:20:47;;;;;;;23.13;6.97;;;;;;;;;;5050879;28;20477;-82
2021/01/18 14:23:14;;;;;;;25.60;6.85;;;;;;;;;;5057589;28;20041;-81
2021/01/18 14:25:42;;;;;;;22.88;6.72;;;;;;;;;;5070278;28;20031;-81
2021/01/18 14:28:09;;;;;;;19.67;6.72;;;;;;;;;;5053776;28;20024;-81
2021/01/18 14:30:36;;;;;;;24.85;8.50;;;;;;;;;;5062321;28;20142;-81
2021/01/18 14:33:03;;;;;;;19.17;6.10;;;;;;;;;;5068942;28;20489;-81
2021/01/18 14:35:30;;;;;;;20.48;6.53;;;;;;;;;;5049078;28;20105;-81
2021/01/18 14:37:57;;;;;;;20.42;7.38;;;;;;;;;;5033449;28;20048;-81
2021/01/18 14:40:24;;;;;;;19.30;6.15;;;;;;;;;;5055146;28;20461;-81
2021/01/18 14:42:51;;;;;;;18.55;5.95;;;;;;;;;;5051907;28;20123;-81
2021/01/18 14:45:18;;;;;;;18.55;6.45;;;;;;;;;;5057698;28;20025;-81
2021/01/18 14:47:45;;;;;;;19.65;6.25;;;;;;;;;;5060330;28;20037;-81
2021/01/18 14:50:13;;;;;;;14.63;5.22;;;;;;;;;;5058093;28;20582;-81
2021/01/18 14:52:41;;;;;;;21.88;5.63;;;;;;;;;;5067133;28;20031;-81
2021/01/18 14:55:09;;;;;;;21.27;5.43;;;;;;;;;;5055710;28;20033;-81
2021/01/18 14:57:36;;;;;;;13.32;6.07;;;;;;;;;;5068071;28;20111;-81